EST,Max TemperatureF,Mean TemperatureF,Min TemperatureF,Max Dew PointF,MeanDew PointF,Min DewpointF,Max Humidity, Mean Humidity, Min Humidity, Max Sea Level PressureIn, Mean Sea Level PressureIn, Min Sea Level PressureIn, Max VisibilityMiles, Mean VisibilityMiles, Min VisibilityMiles, Max Wind SpeedMPH, Mean Wind SpeedMPH, Max Gust SpeedMPH,PrecipitationIn, CloudCover, Events, WindDirDegrees
2013-12-1,34,29,23,29,25,12,100,78,55,30.37,30.17,30.08,10,5,0,16,4,22,0.07,8,Fog-Snow,180
2013-12-2,34,31,27,33,30,27,100,96,92,30.10,29.98,29.91,9,2,0,5,0,5,0.05,8,Fog,128
2013-12-3,31,30,28,31,30,25,100,93,85,30.04,29.99,29.92,10,2,0,10,1,14,0.00,8,Fog,315
2013-12-4,36,28,20,27,23,21,96,83,69,30.23,30.15,30.02,10,9,5,12,2,17,0.00,3,,296
2013-12-5,42,32,21,41,33,20,100,88,75,30.22,30.04,29.87,9,6,3,20,6,25,T,7,,185
2013-12-6,43,37,30,43,35,23,100,83,66,30.18,29.99,29.89,10,6,0,15,5,20,0.33,7,Fog-Rain-Snow,326
2013-12-7,30,26,21,22,15,10,75,63,50,30.50,30.30,30.13,10,10,10,20,9,26,0.00,7,,315
2013-12-8,24,21,18,14,9,6,73,60,46,30.62,30.57,30.50,10,10,10,10,3,15,0.00,6,,319
2013-12-9,36,28,20,29,22,10,92,77,62,30.50,30.05,29.84,10,4,0,17,8,24,0.06,8,Fog-Snow,180
2013-12-10,35,27,18,25,17,6,84,70,56,29.96,29.84,29.77,10,6,0,15,7,22,0.02,8,Fog-Snow,284
2013-12-11,23,17,10,18,13,3,92,72,51,30.19,30.07,29.99,10,3,0,15,6,21,T,8,Fog-Snow,280
2013-12-12,14,8,2,9,2,-4,91,70,48,30.32,30.17,29.97,10,8,2,16,6,25,T,5,Snow,293
2013-12-13,15,5,-6,11,4,-9,88,75,61,30.48,30.03,29.84,10,4,0,18,8,29,T,7,Fog-Snow,299
2013-12-14,4,-2,-9,1,-5,-14,92,74,56,30.68,30.46,30.18,10,5,0,6,0,6,T,4,Fog-Snow,200
2013-12-15,21,13,4,16,10,1,96,87,77,30.19,29.70,29.52,10,3,0,12,2,17,T,7,Fog-Snow,193
2013-12-16,18,3,-12,12,3,-15,96,81,66,30.30,29.91,29.69,10,6,0,15,6,21,T,5,Snow,320
2013-12-17,11,-4,-20,4,-7,-24,95,84,73,30.32,30.15,30.04,10,4,1,8,1,12,T,6,Snow,82
2013-12-18,25,13,0,19,12,1,100,87,73,30.06,30.00,29.91,10,7,1,10,2,15,T,7,Snow,210
2013-12-19,34,28,21,26,21,18,92,76,59,30.12,29.99,29.91,10,7,1,16,5,23,0.06,8,Snow,179
2013-12-20,37,34,30,34,31,26,100,88,75,30.12,29.93,29.88,10,3,0,9,2,12,0.81,8,Fog-Rain,177
2013-12-21,53,42,31,48,37,30,100,92,83,29.96,29.87,29.81,10,3,0,17,4,21,0.31,8,Fog-Rain,225
2013-12-22,36,34,31,36,32,30,100,96,92,29.99,29.85,29.71,10,2,0,10,1,14,0.67,8,Fog-Rain,322
2013-12-23,37,32,27,36,33,21,100,89,78,30.18,30.04,29.97,10,3,0,18,3,24,0.08,8,Fog-Rain-Snow,327
2013-12-24,27,15,3,20,9,-3,88,75,62,30.33,30.21,30.13,10,9,5,20,9,24,T,4,Snow,327
2013-12-25,14,7,-1,2,-4,-8,79,66,53,30.58,30.45,30.27,10,9,5,22,4,32,T,4,Snow,301
2013-12-26,25,20,14,22,17,3,96,77,58,30.43,30.17,30.06,10,4,1,14,5,18,0.01,8,Snow,176
2013-12-27,27,23,18,20,18,13,92,74,55,30.24,30.20,30.14,10,8,2,15,5,26,T,7,Snow,252
2013-12-28,37,27,16,29,24,12,92,77,62,30.16,30.05,29.97,10,9,5,17,5,22,0.00,6,,203
2013-12-29,39,31,22,34,29,21,100,80,59,30.03,29.78,29.58,10,2,0,16,2,22,0.44,5,Fog-Rain-Snow,169
2013-12-30,36,18,0,32,20,-5,100,81,61,30.25,29.79,29.57,10,6,0,29,10,38,0.00,6,Fog-Rain-Snow,324
2013-12-31,15,8,0,7,2,-8,91,76,61,30.24,30.07,29.96,10,6,1,14,4,21,T,6,Snow,177